sensor_id;sensor_type;location;lat;lon;timestamp;P1;durP1;ratioP1;P2;durP2;ratioP2
27495;SDS011;14929;51.336;9.416;2023-05-01T00:00:59;3.33;;;2.50;;
27495;SDS011;14929;51.336;9.416;2023-05-01T00:03:30;7.25;;;3.47;;
27495;SDS011;14929;51.336;9.416;2023-05-01T00:06:00;3.40;;;2.40;;
27495;SDS011;14929;51.336;9.416;2023-05-01T00:08:29;2.30;;;2.10;;
27495;SDS011;14929;51.336;9.416;2023-05-01T00:11:02;2.97;;;2.10;;
27495;SDS011;14929;51.336;9.416;2023-05-01T00:13:33;4.28;;;2.72;;
27495;SDS011;14929;51.336;9.416;2023-05-01T00:16:01;2.33;;;2.08;;
27495;SDS011;14929;51.336;9.416;2023-05-01T00:18:32;3.15;;;1.98;;
27495;SDS011;14929;51.336;9.416;2023-05-01T00:21:00;2.40;;;1.98;;
27495;SDS011;14929;51.336;9.416;2023-05-01T00:23:28;3.25;;;1.98;;
27495;SDS011;14929;51.336;9.416;2023-05-01T00:25:55;2.45;;;2.25;;
27495;SDS011;14929;51.336;9.416;2023-05-01T00:28:24;2.97;;;2.42;;
27495;SDS011;14929;51.336;9.416;2023-05-01T00:30:51;2.25;;;1.95;;
27495;SDS011;14929;51.336;9.416;2023-05-01T00:33:19;3.35;;;2.10;;
27495;SDS011;14929;51.336;9.416;2023-05-01T00:35:46;2.50;;;2.30;;
27495;SDS011;14929;51.336;9.416;2023-05-01T00:38:15;2.03;;;1.67;;
27495;SDS011;14929;51.336;9.416;2023-05-01T00:40:43;2.05;;;1.63;;
27495;SDS011;14929;51.336;9.416;2023-05-01T00:43:11;2.13;;;1.85;;
27495;SDS011;14929;51.336;9.416;2023-05-01T00:45:41;1.75;;;1.60;;
27495;SDS011;14929;51.336;9.416;2023-05-01T00:48:10;1.58;;;1.48;;
27495;SDS011;14929;51.336;9.416;2023-05-01T00:50:38;2.17;;;1.30;;
27495;SDS011;14929;51.336;9.416;2023-05-01T00:53:06;1.90;;;1.80;;
27495;SDS011;14929;51.336;9.416;2023-05-01T00:55:33;1.30;;;1.20;;
27495;SDS011;14929;51.336;9.416;2023-05-01T00:58:01;1.85;;;1.50;;
27495;SDS011;14929;51.336;9.416;2023-05-01T01:00:29;1.25;;;1.17;;
27495;SDS011;14929;51.336;9.416;2023-05-01T01:02:58;1.67;;;1.52;;
27495;SDS011;14929;51.336;9.416;2023-05-01T01:05:26;2.00;;;1.60;;
27495;SDS011;14929;51.336;9.416;2023-05-01T01:07:58;1.48;;;1.30;;
27495;SDS011;14929;51.336;9.416;2023-05-01T01:10:36;2.22;;;1.60;;
27495;SDS011;14929;51.336;9.416;2023-05-01T01:13:10;1.55;;;1.45;;
27495;SDS011;14929;51.336;9.416;2023-05-01T01:15:44;2.00;;;1.80;;
27495;SDS011;14929;51.336;9.416;2023-05-01T01:18:18;2.25;;;1.70;;
27495;SDS011;14929;51.336;9.416;2023-05-01T01:20:53;2.15;;;1.88;;
27495;SDS011;14929;51.336;9.416;2023-05-01T01:23:30;1.48;;;1.38;;
27495;SDS011;14929;51.336;9.416;2023-05-01T01:26:13;1.48;;;1.38;;
27495;SDS011;14929;51.336;9.416;2023-05-01T01:32:08;3.92;;;1.40;;
27495;SDS011;14929;51.336;9.416;2023-05-01T01:34:59;2.13;;;1.70;;
27495;SDS011;14929;51.336;9.416;2023-05-01T01:37:31;1.35;;;1.25;;
27495;SDS011;14929;51.336;9.416;2023-05-01T01:40:06;3.15;;;1.30;;
27495;SDS011;14929;51.336;9.416;2023-05-01T01:42:36;1.30;;;1.20;;
27495;SDS011;14929;51.336;9.416;2023-05-01T01:45:08;1.40;;;1.30;;
27495;SDS011;14929;51.336;9.416;2023-05-01T01:47:41;1.73;;;1.63;;
27495;SDS011;14929;51.336;9.416;2023-05-01T01:50:10;3.22;;;1.90;;
27495;SDS011;14929;51.336;9.416;2023-05-01T01:52:39;1.85;;;1.55;;
27495;SDS011;14929;51.336;9.416;2023-05-01T01:55:08;1.90;;;1.77;;
27495;SDS011;14929;51.336;9.416;2023-05-01T01:57:38;1.60;;;1.50;;
27495;SDS011;14929;51.336;9.416;2023-05-01T02:00:09;1.60;;;1.50;;
27495;SDS011;14929;51.336;9.416;2023-05-01T02:02:38;1.50;;;1.40;;
27495;SDS011;14929;51.336;9.416;2023-05-01T02:05:06;1.50;;;1.40;;
27495;SDS011;14929;51.336;9.416;2023-05-01T02:07:37;1.50;;;1.40;;
27495;SDS011;14929;51.336;9.416;2023-05-01T02:10:06;1.67;;;1.45;;
27495;SDS011;14929;51.336;9.416;2023-05-01T02:12:37;2.15;;;1.42;;
27495;SDS011;14929;51.336;9.416;2023-05-01T02:15:06;1.80;;;1.70;;
27495;SDS011;14929;51.336;9.416;2023-05-01T02:17:35;2.47;;;1.77;;
27495;SDS011;14929;51.336;9.416;2023-05-01T02:20:03;1.70;;;1.60;;
27495;SDS011;14929;51.336;9.416;2023-05-01T02:22:33;1.95;;;1.45;;
27495;SDS011;14929;51.336;9.416;2023-05-01T02:25:02;2.83;;;1.45;;
27495;SDS011;14929;51.336;9.416;2023-05-01T02:27:32;2.28;;;1.48;;
27495;SDS011;14929;51.336;9.416;2023-05-01T02:30:02;2.33;;;1.45;;
27495;SDS011;14929;51.336;9.416;2023-05-01T02:32:31;2.53;;;1.70;;
27495;SDS011;14929;51.336;9.416;2023-05-01T02:34:58;3.50;;;1.77;;
27495;SDS011;14929;51.336;9.416;2023-05-01T02:37:26;1.50;;;1.40;;
27495;SDS011;14929;51.336;9.416;2023-05-01T02:39:56;1.98;;;1.73;;
27495;SDS011;14929;51.336;9.416;2023-05-01T02:42:24;2.70;;;1.70;;
27495;SDS011;14929;51.336;9.416;2023-05-01T02:44:52;1.67;;;1.58;;
27495;SDS011;14929;51.336;9.416;2023-05-01T02:47:23;2.50;;;2.30;;
27495;SDS011;14929;51.336;9.416;2023-05-01T02:49:51;1.52;;;1.42;;
27495;SDS011;14929;51.336;9.416;2023-05-01T02:52:19;1.55;;;1.13;;
27495;SDS011;14929;51.336;9.416;2023-05-01T02:54:47;1.40;;;1.30;;
27495;SDS011;14929;51.336;9.416;2023-05-01T02:57:17;2.13;;;2.03;;
27495;SDS011;14929;51.336;9.416;2023-05-01T02:59:45;1.95;;;1.85;;
27495;SDS011;14929;51.336;9.416;2023-05-01T03:02:12;2.97;;;1.67;;
27495;SDS011;14929;51.336;9.416;2023-05-01T03:04:40;1.80;;;1.25;;
27495;SDS011;14929;51.336;9.416;2023-05-01T03:07:08;2.08;;;1.30;;
27495;SDS011;14929;51.336;9.416;2023-05-01T03:09:36;3.08;;;1.38;;
27495;SDS011;14929;51.336;9.416;2023-05-01T03:12:03;1.30;;;1.20;;
27495;SDS011;14929;51.336;9.416;2023-05-01T03:14:33;1.30;;;1.17;;
27495;SDS011;14929;51.336;9.416;2023-05-01T03:17:00;1.60;;;1.50;;
27495;SDS011;14929;51.336;9.416;2023-05-01T03:19:28;1.67;;;1.58;;
27495;SDS011;14929;51.336;9.416;2023-05-01T03:21:55;1.35;;;1.23;;
27495;SDS011;14929;51.336;9.416;2023-05-01T03:24:23;2.25;;;2.10;;
27495;SDS011;14929;51.336;9.416;2023-05-01T03:26:50;1.77;;;1.48;;
27495;SDS011;14929;51.336;9.416;2023-05-01T03:29:18;1.27;;;1.17;;
27495;SDS011;14929;51.336;9.416;2023-05-01T03:31:47;1.15;;;1.05;;
27495;SDS011;14929;51.336;9.416;2023-05-01T03:34:14;1.60;;;1.50;;
27495;SDS011;14929;51.336;9.416;2023-05-01T03:36:42;1.75;;;1.40;;
27495;SDS011;14929;51.336;9.416;2023-05-01T03:39:09;2.55;;;1.50;;
27495;SDS011;14929;51.336;9.416;2023-05-01T03:41:36;2.22;;;1.55;;
27495;SDS011;14929;51.336;9.416;2023-05-01T03:44:04;2.13;;;1.92;;
27495;SDS011;14929;51.336;9.416;2023-05-01T03:46:31;2.22;;;2.08;;
27495;SDS011;14929;51.336;9.416;2023-05-01T03:49:00;2.60;;;1.55;;
27495;SDS011;14929;51.336;9.416;2023-05-01T03:51:28;1.60;;;1.50;;
27495;SDS011;14929;51.336;9.416;2023-05-01T03:53:55;2.42;;;2.08;;
27495;SDS011;14929;51.336;9.416;2023-05-01T03:56:23;2.78;;;1.80;;
27495;SDS011;14929;51.336;9.416;2023-05-01T03:58:51;1.50;;;1.40;;
27495;SDS011;14929;51.336;9.416;2023-05-01T04:01:19;5.05;;;1.83;;
27495;SDS011;14929;51.336;9.416;2023-05-01T04:03:46;2.22;;;2.03;;
27495;SDS011;14929;51.336;9.416;2023-05-01T04:06:15;2.85;;;1.92;;
27495;SDS011;14929;51.336;9.416;2023-05-01T04:08:42;1.70;;;1.60;;
27495;SDS011;14929;51.336;9.416;2023-05-01T04:11:10;2.47;;;1.70;;
27495;SDS011;14929;51.336;9.416;2023-05-01T04:13:37;2.05;;;1.83;;
27495;SDS011;14929;51.336;9.416;2023-05-01T04:16:05;1.73;;;1.60;;
27495;SDS011;14929;51.336;9.416;2023-05-01T04:18:33;2.28;;;1.90;;
27495;SDS011;14929;51.336;9.416;2023-05-01T04:21:01;1.15;;;1.10;;
27495;SDS011;14929;51.336;9.416;2023-05-01T04:23:30;2.45;;;1.77;;
27495;SDS011;14929;51.336;9.416;2023-05-01T04:25:57;1.75;;;1.55;;
27495;SDS011;14929;51.336;9.416;2023-05-01T04:28:25;3.10;;;1.73;;
27495;SDS011;14929;51.336;9.416;2023-05-01T04:30:55;1.33;;;1.20;;
27495;SDS011;14929;51.336;9.416;2023-05-01T04:33:22;2.45;;;2.03;;
27495;SDS011;14929;51.336;9.416;2023-05-01T04:35:52;1.55;;;1.45;;
27495;SDS011;14929;51.336;9.416;2023-05-01T04:38:19;1.83;;;1.67;;
27495;SDS011;14929;51.336;9.416;2023-05-01T04:40:49;1.50;;;1.20;;
27495;SDS011;14929;51.336;9.416;2023-05-01T04:43:16;2.22;;;1.88;;
27495;SDS011;14929;51.336;9.416;2023-05-01T04:45:44;1.80;;;1.70;;
27495;SDS011;14929;51.336;9.416;2023-05-01T04:48:11;1.75;;;1.65;;
27495;SDS011;14929;51.336;9.416;2023-05-01T04:50:39;1.58;;;1.38;;
27495;SDS011;14929;51.336;9.416;2023-05-01T04:53:07;2.20;;;2.00;;
27495;SDS011;14929;51.336;9.416;2023-05-01T04:55:34;2.08;;;1.52;;
27495;SDS011;14929;51.336;9.416;2023-05-01T04:58:03;1.50;;;1.40;;
27495;SDS011;14929;51.336;9.416;2023-05-01T05:00:31;2.00;;;1.80;;
27495;SDS011;14929;51.336;9.416;2023-05-01T05:02:58;2.67;;;2.30;;
27495;SDS011;14929;51.336;9.416;2023-05-01T05:05:25;1.60;;;1.50;;
27495;SDS011;14929;51.336;9.416;2023-05-01T05:07:53;1.85;;;1.60;;
27495;SDS011;14929;51.336;9.416;2023-05-01T05:10:20;1.77;;;1.60;;
27495;SDS011;14929;51.336;9.416;2023-05-01T05:12:48;3.05;;;1.98;;
27495;SDS011;14929;51.336;9.416;2023-05-01T05:15:17;2.55;;;2.25;;
27495;SDS011;14929;51.336;9.416;2023-05-01T05:17:45;2.38;;;1.70;;
27495;SDS011;14929;51.336;9.416;2023-05-01T05:20:12;2.75;;;1.70;;
27495;SDS011;14929;51.336;9.416;2023-05-01T05:22:40;2.17;;;1.98;;
27495;SDS011;14929;51.336;9.416;2023-05-01T05:25:08;2.05;;;1.70;;
27495;SDS011;14929;51.336;9.416;2023-05-01T05:27:36;2.15;;;1.90;;
27495;SDS011;14929;51.336;9.416;2023-05-01T05:30:04;2.00;;;1.80;;
27495;SDS011;14929;51.336;9.416;2023-05-01T05:32:34;2.20;;;1.95;;
27495;SDS011;14929;51.336;9.416;2023-05-01T05:35:02;2.67;;;1.95;;
27495;SDS011;14929;51.336;9.416;2023-05-01T05:37:30;4.00;;;1.70;;
27495;SDS011;14929;51.336;9.416;2023-05-01T05:39:58;3.42;;;2.33;;
27495;SDS011;14929;51.336;9.416;2023-05-01T05:42:25;4.25;;;3.15;;
27495;SDS011;14929;51.336;9.416;2023-05-01T05:44:53;2.03;;;1.80;;
27495;SDS011;14929;51.336;9.416;2023-05-01T05:47:20;2.72;;;2.22;;
27495;SDS011;14929;51.336;9.416;2023-05-01T05:49:49;5.05;;;2.85;;
27495;SDS011;14929;51.336;9.416;2023-05-01T05:52:17;2.70;;;2.50;;
27495;SDS011;14929;51.336;9.416;2023-05-01T05:54:45;2.60;;;2.40;;
27495;SDS011;14929;51.336;9.416;2023-05-01T05:57:12;2.47;;;2.28;;
27495;SDS011;14929;51.336;9.416;2023-05-01T05:59:40;2.28;;;2.08;;
27495;SDS011;14929;51.336;9.416;2023-05-01T06:02:08;2.58;;;2.38;;
27495;SDS011;14929;51.336;9.416;2023-05-01T06:04:36;2.88;;;2.58;;
27495;SDS011;14929;51.336;9.416;2023-05-01T06:07:04;2.65;;;2.45;;
27495;SDS011;14929;51.336;9.416;2023-05-01T06:09:32;2.30;;;2.10;;
27495;SDS011;14929;51.336;9.416;2023-05-01T06:12:00;2.70;;;2.03;;
27495;SDS011;14929;51.336;9.416;2023-05-01T06:14:29;2.90;;;2.33;;
27495;SDS011;14929;51.336;9.416;2023-05-01T06:16:57;4.68;;;3.30;;
27495;SDS011;14929;51.336;9.416;2023-05-01T06:19:25;5.20;;;4.68;;
27495;SDS011;14929;51.336;9.416;2023-05-01T06:21:53;3.17;;;2.47;;
27495;SDS011;14929;51.336;9.416;2023-05-01T06:24:21;2.38;;;2.13;;
27495;SDS011;14929;51.336;9.416;2023-05-01T06:26:49;2.22;;;1.90;;
27495;SDS011;14929;51.336;9.416;2023-05-01T06:29:16;6.20;;;3.08;;
27495;SDS011;14929;51.336;9.416;2023-05-01T06:31:44;4.30;;;2.45;;
27495;SDS011;14929;51.336;9.416;2023-05-01T06:34:11;3.33;;;3.00;;
27495;SDS011;14929;51.336;9.416;2023-05-01T06:36:39;4.40;;;2.97;;
27495;SDS011;14929;51.336;9.416;2023-05-01T06:39:06;5.10;;;3.53;;
27495;SDS011;14929;51.336;9.416;2023-05-01T06:41:35;3.83;;;2.85;;
27495;SDS011;14929;51.336;9.416;2023-05-01T06:44:03;3.67;;;3.00;;
27495;SDS011;14929;51.336;9.416;2023-05-01T06:46:31;9.02;;;3.33;;
27495;SDS011;14929;51.336;9.416;2023-05-01T06:48:58;3.47;;;3.00;;
27495;SDS011;14929;51.336;9.416;2023-05-01T06:51:26;3.85;;;3.50;;
27495;SDS011;14929;51.336;9.416;2023-05-01T06:53:54;4.53;;;3.22;;
27495;SDS011;14929;51.336;9.416;2023-05-01T06:56:21;5.15;;;2.92;;
27495;SDS011;14929;51.336;9.416;2023-05-01T06:58:50;3.58;;;3.05;;
27495;SDS011;14929;51.336;9.416;2023-05-01T07:01:18;5.35;;;3.78;;
27495;SDS011;14929;51.336;9.416;2023-05-01T07:03:46;5.20;;;3.25;;
27495;SDS011;14929;51.336;9.416;2023-05-01T07:06:14;3.95;;;3.15;;
27495;SDS011;14929;51.336;9.416;2023-05-01T07:08:41;4.57;;;4.18;;
27495;SDS011;14929;51.336;9.416;2023-05-01T07:11:09;4.47;;;3.80;;
27495;SDS011;14929;51.336;9.416;2023-05-01T07:13:36;4.68;;;3.75;;
27495;SDS011;14929;51.336;9.416;2023-05-01T07:16:06;6.45;;;4.65;;
27495;SDS011;14929;51.336;9.416;2023-05-01T07:18:33;8.30;;;4.75;;
27495;SDS011;14929;51.336;9.416;2023-05-01T07:21:01;6.63;;;4.93;;
27495;SDS011;14929;51.336;9.416;2023-05-01T07:23:29;5.15;;;3.60;;
27495;SDS011;14929;51.336;9.416;2023-05-01T07:25:57;4.18;;;3.78;;
27495;SDS011;14929;51.336;9.416;2023-05-01T07:28:24;6.15;;;4.25;;
27495;SDS011;14929;51.336;9.416;2023-05-01T07:30:51;4.55;;;3.80;;
27495;SDS011;14929;51.336;9.416;2023-05-01T07:33:21;3.72;;;3.42;;
27495;SDS011;14929;51.336;9.416;2023-05-01T07:35:50;5.07;;;3.85;;
27495;SDS011;14929;51.336;9.416;2023-05-01T07:38:17;4.40;;;3.17;;
27495;SDS011;14929;51.336;9.416;2023-05-01T07:40:45;9.40;;;4.15;;
27495;SDS011;14929;51.336;9.416;2023-05-01T07:43:13;4.38;;;3.97;;
27495;SDS011;14929;51.336;9.416;2023-05-01T07:45:40;5.35;;;3.60;;
27495;SDS011;14929;51.336;9.416;2023-05-01T07:48:08;4.47;;;2.88;;
27495;SDS011;14929;51.336;9.416;2023-05-01T07:50:37;7.00;;;3.42;;
27495;SDS011;14929;51.336;9.416;2023-05-01T07:53:04;4.43;;;3.20;;
27495;SDS011;14929;51.336;9.416;2023-05-01T07:55:32;3.90;;;3.58;;
27495;SDS011;14929;51.336;9.416;2023-05-01T07:57:59;2.90;;;2.70;;
27495;SDS011;14929;51.336;9.416;2023-05-01T08:00:27;3.88;;;2.50;;
27495;SDS011;14929;51.336;9.416;2023-05-01T08:02:55;5.00;;;3.28;;
27495;SDS011;14929;51.336;9.416;2023-05-01T08:05:22;6.68;;;3.58;;
27495;SDS011;14929;51.336;9.416;2023-05-01T08:07:51;6.85;;;4.07;;
27495;SDS011;14929;51.336;9.416;2023-05-01T08:10:19;7.20;;;4.22;;
27495;SDS011;14929;51.336;9.416;2023-05-01T08:12:46;3.97;;;3.42;;
27495;SDS011;14929;51.336;9.416;2023-05-01T08:15:14;4.82;;;4.13;;
27495;SDS011;14929;51.336;9.416;2023-05-01T08:17:41;3.83;;;3.53;;
27495;SDS011;14929;51.336;9.416;2023-05-01T08:20:09;3.60;;;3.30;;
27495;SDS011;14929;51.336;9.416;2023-05-01T08:22:38;4.70;;;4.20;;
27495;SDS011;14929;51.336;9.416;2023-05-01T08:25:07;3.50;;;3.17;;
27495;SDS011;14929;51.336;9.416;2023-05-01T08:27:35;3.55;;;3.20;;
27495;SDS011;14929;51.336;9.416;2023-05-01T08:30:03;5.75;;;4.35;;
27495;SDS011;14929;51.336;9.416;2023-05-01T08:32:31;8.80;;;4.32;;
27495;SDS011;14929;51.336;9.416;2023-05-01T08:34:59;5.43;;;3.00;;
27495;SDS011;14929;51.336;9.416;2023-05-01T08:37:26;3.30;;;3.00;;
27495;SDS011;14929;51.336;9.416;2023-05-01T08:39:54;5.20;;;4.53;;
27495;SDS011;14929;51.336;9.416;2023-05-01T08:42:23;4.15;;;3.72;;
27495;SDS011;14929;51.336;9.416;2023-05-01T08:44:51;4.47;;;3.40;;
27495;SDS011;14929;51.336;9.416;2023-05-01T08:47:19;5.25;;;3.63;;
27495;SDS011;14929;51.336;9.416;2023-05-01T08:49:48;4.60;;;3.50;;
27495;SDS011;14929;51.336;9.416;2023-05-01T08:52:17;4.13;;;2.88;;
27495;SDS011;14929;51.336;9.416;2023-05-01T08:54:44;4.15;;;3.80;;
27495;SDS011;14929;51.336;9.416;2023-05-01T08:57:12;5.70;;;3.90;;
27495;SDS011;14929;51.336;9.416;2023-05-01T08:59:41;6.88;;;3.47;;
27495;SDS011;14929;51.336;9.416;2023-05-01T09:02:10;4.57;;;3.25;;
27495;SDS011;14929;51.336;9.416;2023-05-01T09:04:39;2.95;;;2.72;;
27495;SDS011;14929;51.336;9.416;2023-05-01T09:07:07;2.97;;;2.47;;
27495;SDS011;14929;51.336;9.416;2023-05-01T09:09:35;3.28;;;2.92;;
27495;SDS011;14929;51.336;9.416;2023-05-01T09:12:05;5.32;;;3.33;;
27495;SDS011;14929;51.336;9.416;2023-05-01T09:14:38;3.10;;;2.85;;
27495;SDS011;14929;51.336;9.416;2023-05-01T09:17:07;3.33;;;3.03;;
27495;SDS011;14929;51.336;9.416;2023-05-01T09:19:34;3.13;;;2.83;;
27495;SDS011;14929;51.336;9.416;2023-05-01T09:22:02;6.00;;;3.53;;
27495;SDS011;14929;51.336;9.416;2023-05-01T09:24:29;3.95;;;3.22;;
27495;SDS011;14929;51.336;9.416;2023-05-01T09:26:57;3.03;;;2.83;;
27495;SDS011;14929;51.336;9.416;2023-05-01T09:29:35;3.38;;;3.17;;
27495;SDS011;14929;51.336;9.416;2023-05-01T09:32:15;3.67;;;3.00;;
27495;SDS011;14929;51.336;9.416;2023-05-01T09:34:45;5.72;;;3.30;;
27495;SDS011;14929;51.336;9.416;2023-05-01T09:37:23;3.10;;;2.80;;
27495;SDS011;14929;51.336;9.416;2023-05-01T09:40:01;3.80;;;3.38;;
27495;SDS011;14929;51.336;9.416;2023-05-01T09:42:31;3.95;;;3.45;;
27495;SDS011;14929;51.336;9.416;2023-05-01T09:44:59;3.80;;;3.50;;
27495;SDS011;14929;51.336;9.416;2023-05-01T09:47:29;4.50;;;3.83;;
27495;SDS011;14929;51.336;9.416;2023-05-01T09:49:58;4.40;;;3.40;;
27495;SDS011;14929;51.336;9.416;2023-05-01T09:52:26;5.63;;;5.00;;
27495;SDS011;14929;51.336;9.416;2023-05-01T09:55:12;4.38;;;3.15;;
27495;SDS011;14929;51.336;9.416;2023-05-01T09:57:41;3.78;;;3.30;;
27495;SDS011;14929;51.336;9.416;2023-05-01T10:00:10;3.60;;;3.30;;
27495;SDS011;14929;51.336;9.416;2023-05-01T10:02:44;3.15;;;2.60;;
27495;SDS011;14929;51.336;9.416;2023-05-01T10:05:13;2.83;;;2.63;;
27495;SDS011;14929;51.336;9.416;2023-05-01T10:07:53;3.22;;;2.92;;
27495;SDS011;14929;51.336;9.416;2023-05-01T10:10:22;4.07;;;3.28;;
27495;SDS011;14929;51.336;9.416;2023-05-01T10:12:50;3.10;;;2.53;;
27495;SDS011;14929;51.336;9.416;2023-05-01T10:15:18;3.30;;;3.00;;
27495;SDS011;14929;51.336;9.416;2023-05-01T10:17:48;4.03;;;3.03;;
27495;SDS011;14929;51.336;9.416;2023-05-01T10:20:17;3.42;;;3.13;;
27495;SDS011;14929;51.336;9.416;2023-05-01T10:22:45;4.07;;;3.25;;
27495;SDS011;14929;51.336;9.416;2023-05-01T10:25:12;3.67;;;3.38;;
27495;SDS011;14929;51.336;9.416;2023-05-01T10:27:40;3.72;;;3.35;;
27495;SDS011;14929;51.336;9.416;2023-05-01T10:30:08;3.90;;;3.50;;
27495;SDS011;14929;51.336;9.416;2023-05-01T10:32:36;3.90;;;3.50;;
27495;SDS011;14929;51.336;9.416;2023-05-01T10:35:08;5.65;;;3.50;;
27495;SDS011;14929;51.336;9.416;2023-05-01T10:37:43;3.63;;;3.33;;
27495;SDS011;14929;51.336;9.416;2023-05-01T10:43:15;3.45;;;3.15;;
27495;SDS011;14929;51.336;9.416;2023-05-01T10:45:45;3.90;;;2.92;;
27495;SDS011;14929;51.336;9.416;2023-05-01T10:51:19;2.83;;;2.63;;
27495;SDS011;14929;51.336;9.416;2023-05-01T10:53:48;3.30;;;2.72;;
27495;SDS011;14929;51.336;9.416;2023-05-01T10:56:42;2.97;;;2.75;;
27495;SDS011;14929;51.336;9.416;2023-05-01T10:59:09;4.93;;;2.83;;
27495;SDS011;14929;51.336;9.416;2023-05-01T11:01:37;2.80;;;2.58;;
27495;SDS011;14929;51.336;9.416;2023-05-01T11:04:07;3.03;;;2.78;;
27495;SDS011;14929;51.336;9.416;2023-05-01T11:07:16;4.65;;;4.25;;
27495;SDS011;14929;51.336;9.416;2023-05-01T11:09:46;3.60;;;3.30;;
27495;SDS011;14929;51.336;9.416;2023-05-01T11:12:16;4.45;;;4.05;;
27495;SDS011;14929;51.336;9.416;2023-05-01T11:15:24;2.78;;;2.58;;
27495;SDS011;14929;51.336;9.416;2023-05-01T11:17:56;3.13;;;2.53;;
27495;SDS011;14929;51.336;9.416;2023-05-01T11:23:18;3.30;;;2.90;;
27495;SDS011;14929;51.336;9.416;2023-05-01T11:25:47;2.28;;;2.08;;
27495;SDS011;14929;51.336;9.416;2023-05-01T11:28:18;1.90;;;1.80;;
27495;SDS011;14929;51.336;9.416;2023-05-01T11:30:47;2.53;;;2.33;;
27495;SDS011;14929;51.336;9.416;2023-05-01T11:33:20;2.05;;;1.92;;
27495;SDS011;14929;51.336;9.416;2023-05-01T11:35:56;2.00;;;1.45;;
27495;SDS011;14929;51.336;9.416;2023-05-01T11:38:30;2.08;;;1.83;;
27495;SDS011;14929;51.336;9.416;2023-05-01T11:40:58;2.58;;;1.63;;
27495;SDS011;14929;51.336;9.416;2023-05-01T11:43:28;2.03;;;1.92;;
27495;SDS011;14929;51.336;9.416;2023-05-01T11:45:56;1.55;;;1.45;;
27495;SDS011;14929;51.336;9.416;2023-05-01T11:48:28;1.70;;;1.60;;
27495;SDS011;14929;51.336;9.416;2023-05-01T11:50:56;1.60;;;1.50;;
27495;SDS011;14929;51.336;9.416;2023-05-01T11:53:24;1.10;;;1.10;;
27495;SDS011;14929;51.336;9.416;2023-05-01T11:55:53;1.10;;;1.10;;
27495;SDS011;14929;51.336;9.416;2023-05-01T11:58:30;1.27;;;1.17;;
27495;SDS011;14929;51.336;9.416;2023-05-01T12:00:58;1.08;;;1.05;;
27495;SDS011;14929;51.336;9.416;2023-05-01T12:03:27;1.30;;;1.23;;
27495;SDS011;14929;51.336;9.416;2023-05-01T12:05:57;1.73;;;1.38;;
27495;SDS011;14929;51.336;9.416;2023-05-01T12:08:25;1.92;;;1.70;;
27495;SDS011;14929;51.336;9.416;2023-05-01T12:10:54;2.13;;;1.38;;
27495;SDS011;14929;51.336;9.416;2023-05-01T12:13:22;1.55;;;1.45;;
27495;SDS011;14929;51.336;9.416;2023-05-01T12:15:51;2.45;;;1.80;;
27495;SDS011;14929;51.336;9.416;2023-05-01T12:18:20;1.67;;;1.58;;
27495;SDS011;14929;51.336;9.416;2023-05-01T12:20:48;2.00;;;1.90;;
27495;SDS011;14929;51.336;9.416;2023-05-01T12:23:17;1.92;;;1.63;;
27495;SDS011;14929;51.336;9.416;2023-05-01T12:25:46;1.70;;;1.60;;
27495;SDS011;14929;51.336;9.416;2023-05-01T12:28:15;1.95;;;1.85;;
27495;SDS011;14929;51.336;9.416;2023-05-01T12:30:45;1.63;;;1.52;;
27495;SDS011;14929;51.336;9.416;2023-05-01T12:33:14;1.42;;;1.33;;
27495;SDS011;14929;51.336;9.416;2023-05-01T12:35:43;1.55;;;1.45;;
27495;SDS011;14929;51.336;9.416;2023-05-01T12:38:14;1.20;;;1.20;;
27495;SDS011;14929;51.336;9.416;2023-05-01T12:40:49;1.90;;;1.80;;
27495;SDS011;14929;51.336;9.416;2023-05-01T12:43:20;3.63;;;2.00;;
27495;SDS011;14929;51.336;9.416;2023-05-01T12:45:55;2.42;;;2.25;;
27495;SDS011;14929;51.336;9.416;2023-05-01T12:48:22;1.65;;;1.55;;
27495;SDS011;14929;51.336;9.416;2023-05-01T12:50:50;1.63;;;1.52;;
27495;SDS011;14929;51.336;9.416;2023-05-01T12:53:19;1.80;;;1.70;;
27495;SDS011;14929;51.336;9.416;2023-05-01T12:55:48;1.92;;;1.83;;
27495;SDS011;14929;51.336;9.416;2023-05-01T12:58:16;1.30;;;1.30;;
27495;SDS011;14929;51.336;9.416;2023-05-01T13:00:46;1.40;;;1.30;;
27495;SDS011;14929;51.336;9.416;2023-05-01T13:03:16;1.60;;;1.50;;
27495;SDS011;14929;51.336;9.416;2023-05-01T13:05:51;1.40;;;1.38;;
27495;SDS011;14929;51.336;9.416;2023-05-01T13:08:27;1.15;;;1.15;;
27495;SDS011;14929;51.336;9.416;2023-05-01T13:10:56;1.40;;;1.30;;
27495;SDS011;14929;51.336;9.416;2023-05-01T13:13:26;2.03;;;1.83;;
27495;SDS011;14929;51.336;9.416;2023-05-01T13:16:06;2.17;;;1.52;;
27495;SDS011;14929;51.336;9.416;2023-05-01T13:18:43;1.42;;;1.33;;
27495;SDS011;14929;51.336;9.416;2023-05-01T13:21:12;1.90;;;1.80;;
27495;SDS011;14929;51.336;9.416;2023-05-01T13:23:41;2.58;;;1.27;;
27495;SDS011;14929;51.336;9.416;2023-05-01T13:26:17;1.50;;;1.40;;
27495;SDS011;14929;51.336;9.416;2023-05-01T13:28:49;1.55;;;1.45;;
27495;SDS011;14929;51.336;9.416;2023-05-01T13:31:19;1.70;;;1.20;;
27495;SDS011;14929;51.336;9.416;2023-05-01T13:33:46;1.13;;;1.00;;
27495;SDS011;14929;51.336;9.416;2023-05-01T13:36:17;1.50;;;1.20;;
27495;SDS011;14929;51.336;9.416;2023-05-01T13:38:46;1.05;;;1.05;;
27495;SDS011;14929;51.336;9.416;2023-05-01T13:41:18;1.05;;;1.05;;
27495;SDS011;14929;51.336;9.416;2023-05-01T13:43:47;1.10;;;1.10;;
27495;SDS011;14929;51.336;9.416;2023-05-01T13:46:16;1.17;;;1.17;;
27495;SDS011;14929;51.336;9.416;2023-05-01T13:48:46;1.02;;;1.02;;
27495;SDS011;14929;51.336;9.416;2023-05-01T13:51:17;1.10;;;1.10;;
27495;SDS011;14929;51.336;9.416;2023-05-01T13:53:47;1.50;;;1.40;;
27495;SDS011;14929;51.336;9.416;2023-05-01T13:56:17;1.13;;;1.10;;
27495;SDS011;14929;51.336;9.416;2023-05-01T13:58:45;0.93;;;0.93;;
27495;SDS011;14929;51.336;9.416;2023-05-01T14:01:14;0.90;;;0.90;;
27495;SDS011;14929;51.336;9.416;2023-05-01T14:03:45;1.10;;;1.10;;
27495;SDS011;14929;51.336;9.416;2023-05-01T14:06:14;0.90;;;0.90;;
27495;SDS011;14929;51.336;9.416;2023-05-01T14:08:44;1.20;;;1.10;;
27495;SDS011;14929;51.336;9.416;2023-05-01T14:11:12;1.50;;;1.40;;
27495;SDS011;14929;51.336;9.416;2023-05-01T14:13:41;1.05;;;1.05;;
27495;SDS011;14929;51.336;9.416;2023-05-01T14:16:10;0.90;;;0.90;;
27495;SDS011;14929;51.336;9.416;2023-05-01T14:18:42;1.20;;;1.10;;
27495;SDS011;14929;51.336;9.416;2023-05-01T14:21:13;2.25;;;1.67;;
27495;SDS011;14929;51.336;9.416;2023-05-01T14:23:42;1.60;;;1.40;;
27495;SDS011;14929;51.336;9.416;2023-05-01T14:26:10;1.30;;;1.20;;
27495;SDS011;14929;51.336;9.416;2023-05-01T14:28:42;0.80;;;0.80;;
27495;SDS011;14929;51.336;9.416;2023-05-01T14:31:13;0.98;;;0.98;;
27495;SDS011;14929;51.336;9.416;2023-05-01T14:33:43;1.08;;;1.08;;
27495;SDS011;14929;51.336;9.416;2023-05-01T14:36:12;0.80;;;0.80;;
27495;SDS011;14929;51.336;9.416;2023-05-01T14:38:40;2.55;;;1.52;;
27495;SDS011;14929;51.336;9.416;2023-05-01T14:41:10;1.38;;;1.27;;
27495;SDS011;14929;51.336;9.416;2023-05-01T14:43:39;0.80;;;0.80;;
27495;SDS011;14929;51.336;9.416;2023-05-01T14:46:09;1.00;;;1.00;;
27495;SDS011;14929;51.336;9.416;2023-05-01T14:48:39;1.00;;;1.00;;
27495;SDS011;14929;51.336;9.416;2023-05-01T14:51:08;1.27;;;1.17;;
27495;SDS011;14929;51.336;9.416;2023-05-01T14:53:39;0.82;;;0.82;;
27495;SDS011;14929;51.336;9.416;2023-05-01T14:56:08;1.00;;;1.00;;
27495;SDS011;14929;51.336;9.416;2023-05-01T14:58:35;1.33;;;1.20;;
27495;SDS011;14929;51.336;9.416;2023-05-01T15:01:03;1.02;;;1.02;;
27495;SDS011;14929;51.336;9.416;2023-05-01T15:03:30;1.10;;;0.88;;
27495;SDS011;14929;51.336;9.416;2023-05-01T15:06:00;1.00;;;1.00;;
27495;SDS011;14929;51.336;9.416;2023-05-01T15:08:28;1.17;;;1.17;;
27495;SDS011;14929;51.336;9.416;2023-05-01T15:10:57;1.42;;;1.33;;
27495;SDS011;14929;51.336;9.416;2023-05-01T15:13:25;1.13;;;1.13;;